createdAt,value
2018-08-12T00:08:32.668Z,17.2
2018-08-12T00:18:31.908Z,17.9
2018-08-12T00:28:31.149Z,18.8
2018-08-12T00:38:30.387Z,20.3
2018-08-12T00:48:29.624Z,18.3
2018-08-12T00:58:28.865Z,19.6
2018-08-12T01:08:28.105Z,20.3
2018-08-12T01:18:27.347Z,21.1
2018-08-12T01:28:26.583Z,21.4
2018-08-12T01:38:25.823Z,21.4
2018-08-12T01:48:25.064Z,21.5
2018-08-12T01:58:24.302Z,21.5
2018-08-12T02:08:23.541Z,21.4
2018-08-12T02:18:22.779Z,21.4
2018-08-12T02:28:22.017Z,21.4
2018-08-12T02:38:21.266Z,21.3
2018-08-12T02:48:20.497Z,21.3
2018-08-12T02:58:19.735Z,21.2
2018-08-12T03:08:18.980Z,21.2
2018-08-12T03:18:18.213Z,21.1
2018-08-12T03:28:17.450Z,21.1
2018-08-12T03:38:16.688Z,21
2018-08-12T03:48:15.929Z,20.9
2018-08-12T03:58:15.171Z,21.1
2018-08-12T04:08:14.406Z,21.1
2018-08-12T04:18:13.646Z,21.1
2018-08-12T04:28:12.887Z,21.1
2018-08-12T04:38:12.123Z,21.3
2018-08-12T04:48:11.363Z,21.4
2018-08-12T04:58:10.599Z,21.6
2018-08-12T05:08:09.838Z,21.9
2018-08-12T05:18:09.075Z,22.1
2018-08-12T05:28:08.313Z,22.3
2018-08-12T05:38:07.550Z,22.6
2018-08-12T05:48:06.793Z,22.8
2018-08-12T05:58:06.030Z,23
2018-08-12T06:08:05.268Z,22.9
2018-08-12T06:18:04.511Z,22.9
2018-08-12T06:28:03.746Z,23.1
2018-08-12T06:38:02.987Z,23.4
2018-08-12T06:48:02.227Z,23.4
2018-08-12T06:58:01.466Z,23.7
2018-08-12T07:08:00.705Z,23.8
2018-08-12T07:17:59.946Z,24.3
2018-08-12T07:27:59.185Z,24.4
2018-08-12T07:37:58.432Z,24.6
2018-08-12T07:47:57.666Z,24.9
2018-08-12T07:57:56.907Z,25.4
2018-08-12T08:07:56.144Z,25.5
2018-08-12T08:17:55.386Z,25.4
2018-08-12T08:27:54.629Z,25.4
2018-08-12T08:37:53.872Z,25.6
2018-08-12T08:47:53.115Z,26.1
2018-08-12T08:57:52.353Z,25.9
2018-08-12T09:07:51.610Z,25.9
2018-08-12T09:17:50.839Z,26
2018-08-12T09:27:50.084Z,26.1
2018-08-12T09:37:49.327Z,26.1
2018-08-12T09:47:48.664Z,26.4
2018-08-12T09:57:47.810Z,27.3
2018-08-12T10:07:47.055Z,26.6
2018-08-12T10:17:46.295Z,26.4
2018-08-12T10:27:45.539Z,26.6
2018-08-12T10:37:44.777Z,26.8
2018-08-12T10:47:44.019Z,26.6
2018-08-12T10:57:43.265Z,26.8
2018-08-12T11:07:42.508Z,26.6
2018-08-12T11:17:41.843Z,26.4
2018-08-12T11:27:40.989Z,26.4
2018-08-12T11:37:40.224Z,26.4
2018-08-12T11:47:39.466Z,26.7
2018-08-12T11:57:38.711Z,27.3
2018-08-12T12:07:37.944Z,27.3
2018-08-12T12:17:37.183Z,27.1
2018-08-12T12:27:36.428Z,26.8
2018-08-12T12:37:35.663Z,26.8
2018-08-12T12:47:34.903Z,26.8
2018-08-12T12:57:34.155Z,27.6
2018-08-12T13:07:33.384Z,27.1
2018-08-12T13:17:32.625Z,27.3
2018-08-12T13:27:31.865Z,27.3
2018-08-12T13:37:31.112Z,26.8
2018-08-12T13:47:30.356Z,27.2
2018-08-12T13:57:29.604Z,26.7
2018-08-12T14:07:28.838Z,26.8
2018-08-12T14:17:28.077Z,26.8
2018-08-12T14:27:27.318Z,26.7
2018-08-12T14:37:26.566Z,26.9
2018-08-12T14:47:25.803Z,28
2018-08-12T14:57:25.045Z,27.7
2018-08-12T15:07:24.287Z,27.5
2018-08-12T15:17:23.530Z,26.4
2018-08-12T15:27:22.771Z,27.1
2018-08-12T15:37:22.012Z,27.1
2018-08-12T15:47:21.255Z,26.7
2018-08-12T15:57:20.496Z,26.5
2018-08-12T16:07:19.738Z,26.4
2018-08-12T16:17:19.035Z,26.4
2018-08-12T16:27:18.224Z,26.3
2018-08-12T16:37:17.466Z,26.3
2018-08-12T16:47:16.709Z,26.1
2018-08-12T16:57:15.952Z,25.9
2018-08-12T17:07:15.195Z,25.8
2018-08-12T17:17:14.438Z,25.5
2018-08-12T17:27:13.681Z,25.2
2018-08-12T17:37:12.925Z,25
2018-08-12T17:47:12.168Z,24.8
2018-08-12T17:57:11.411Z,24.6
2018-08-12T18:07:10.655Z,24.8
2018-08-12T18:17:09.901Z,24.8
2018-08-12T18:27:09.226Z,24.8
2018-08-12T18:37:08.388Z,24.8
2018-08-12T18:47:07.681Z,24.8
2018-08-12T18:57:06.871Z,24.8
2018-08-12T19:07:06.110Z,24.8
2018-08-12T19:17:05.353Z,24.7
2018-08-12T19:27:04.596Z,24.6
2018-08-12T19:37:03.839Z,24.6
2018-08-12T19:47:03.083Z,24.5
2018-08-12T19:57:02.331Z,24.4
2018-08-12T20:07:01.574Z,24.3
2018-08-12T20:17:00.818Z,24.2
2018-08-12T20:27:00.053Z,24.1
2018-08-12T20:36:59.291Z,24
2018-08-12T20:46:58.534Z,23.9
2018-08-12T20:56:57.774Z,23.9
2018-08-12T21:06:57.016Z,23.8
2018-08-12T21:16:56.307Z,23.8
2018-08-12T21:26:55.499Z,23.7
2018-08-12T21:36:54.742Z,23.6
2018-08-12T21:46:53.984Z,23.5
2018-08-12T21:56:53.220Z,23.4
2018-08-12T22:06:52.462Z,23.3
2018-08-12T22:16:51.702Z,23.3
2018-08-12T22:26:50.942Z,23.2
2018-08-12T22:36:50.183Z,23.1
2018-08-12T22:46:49.423Z,23.1
2018-08-12T22:56:48.665Z,23
2018-08-12T23:06:47.903Z,22.9
2018-08-12T23:16:47.143Z,22.8
2018-08-12T23:26:46.383Z,22.8
2018-08-12T23:36:45.624Z,22.6
2018-08-12T23:46:44.863Z,22.6
2018-08-12T23:56:44.105Z,22.5
